Latest Weather Observations for Julia Creek

IDQ60801

Issued at 5:42 pm EST Sunday 15 September 2019 (issued every 10 minutes, with the page automatically refreshed every 10 minutes)

About weather observations | Map of weather stations | Latest weather observations for QLD | Other Formats
Station Details ID: 029058 Name: JULIA CREEK AIRPORT Lat: -20.67 Lon: 141.72 Height: 122.5 m
Data from the previous 72 hours. | See also: Recent months at Julia Creek
Date/Time
EST
Temp
°C
App
Temp
°C
Dew
Point
°C
Rel
Hum
%
Delta-T
°C
Wind Press
QNH
hPa
Press
MSL
hPa
Rain since
9am
mm
Dir  Spd
km/h
Gust
km/h
Spd
kts
Gust
kts
15/05:30pm 33.1 28.2 -7.3 7 17.5 E 11 20 6 11 1015.8 1015.2 0.0
15/05:00pm 33.6 28.5 -8.9 6 18.0 NE 11 17 6 9 1015.7 1015.1 0.0
15/04:30pm 34.0 28.2 -8.6 6 18.2 ESE 15 24 8 13 1015.4 1014.8 0.0
15/04:00pm 33.9 27.9 -6.7 7 17.9 ESE 17 28 9 15 1015.6 1015.0 0.0
15/03:30pm 33.4 28.5 -7.0 7 17.7 NNE 11 17 6 9 1015.7 1015.1 0.0
15/03:00pm 33.9 28.3 -6.7 7 17.9 ENE 15 28 8 15 1016.2 1015.6 0.0
15/02:30pm 33.1 27.8 -7.3 7 17.5 ESE 13 19 7 10 1016.5 1015.9 0.0
15/02:00pm 32.7 27.2 -9.5 6 17.6 E 13 24 7 13 1017.1 1016.5 0.0
15/01:30pm 33.6 27.0 -6.9 7 17.8 ESE 20 33 11 18 1017.7 1017.1 0.0
15/01:00pm 32.4 26.1 -6.0 8 16.9 ENE 19 30 10 16 1018.4 1017.9 0.0
15/12:30pm 32.7 26.6 -7.6 7 17.4 E 17 30 9 16 1019.0 1018.5 0.0
15/12:00pm 31.7 27.2 -3.6 10 16.1 E 11 15 6 8 1019.5 1019.0 0.0
15/11:30am 30.6 25.5 -2.0 12 15.2 N 15 22 8 12 1020.0 1019.5 0.0
15/11:00am 29.9 24.6 -0.5 14 14.4 N 17 26 9 14 1020.5 1020.0 0.0
15/10:30am 29.7 24.5 0.3 15 14.2 NNW 17 26 9 14 1020.9 1020.4 0.0
15/10:00am 27.0 21.4 -0.1 17 12.7 NNW 19 26 10 14 1021.1 1020.6 0.0
15/09:30am 26.6 20.9 0.4 18 12.4 N 20 26 11 14 1021.6 1021.1 0.0
15/09:00am 25.2 19.2 -1.6 17 12.0 N 20 26 11 14 1021.4 1020.9 0.0
15/08:30am 22.8 18.0 -2.7 18 11.0 NNE 13 19 7 10 1021.3 1020.8 0.0
15/08:00am 19.8 15.6 -3.8 20 9.7 E 9 11 5 6 1021.0 1020.5 0.0
15/07:30am 16.1 11.8 -5.0 23 8.1 E 9 13 5 7 1020.7 1020.2 0.0
15/07:00am 13.0 7.4 -6.5 25 7.0 ESE 15 17 8 9 1020.3 1019.8 0.0
15/06:30am 11.6 5.9 -7.2 26 6.5 ESE 15 17 8 9 1019.8 1019.3 0.0
15/06:00am 11.5 5.4 -7.8 25 6.6 SE 17 17 9 9 1019.3 1018.8 0.0
15/05:30am 11.8 6.1 -7.1 26 6.6 SE 15 15 8 8 1018.8 1018.3 0.0
15/05:00am 11.8 6.9 -7.6 25 6.7 ESE 11 13 6 7 1018.6 1018.1 0.0
15/04:30am 12.3 7.3 -8.2 23 7.0 ESE 11 13 6 7 1018.2 1017.7 0.0
15/04:00am 12.8 7.4 -8.4 22 7.3 ESE 13 13 7 7 1017.8 1017.2 0.0
15/03:30am 13.7 7.9 -8.8 20 7.8 ESE 15 17 8 9 1017.4 1016.8 0.0
15/03:00am 14.1 7.9 -9.1 19 8.0 ESE 17 19 9 10 1017.4 1016.8 0.0
15/02:30am 14.0 8.2 -9.2 19 8.0 ESE 15 17 8 9 1017.6 1017.0 0.0
15/02:00am 13.9 8.0 -10.0 18 8.0 ESE 15 17 8 9 1017.8 1017.2 0.0
15/01:30am 14.8 9.0 -8.6 19 8.2 SE 15 17 8 9 1017.8 1017.2 0.0
15/01:00am 13.5 8.0 -9.6 19 7.8 ESE 13 17 7 9 1018.1 1017.6 0.0
15/12:30am 14.5 9.0 -10.2 17 8.3 ESE 13 15 7 8 1018.1 1017.6 0.0
15/12:00am 16.3 10.4 -10.3 15 9.2 SE 15 17 8 9 1018.0 1017.4 0.0
 
Date/Time
EST
Temp
°C
App
Temp
°C
Dew
Point
°C
Rel
Hum
%
Delta-T
°C
Wind Press
QNH
hPa
Press
MSL
hPa
Rain since
9am
mm
Dir  Spd
km/h
Gust
km/h
Spd
kts
Gust
kts
14/11:30pm 16.7 10.4 -10.9 14 9.5 SSE 17 17 9 9 1018.0 1017.4 0.0
14/11:00pm 18.5 12.1 -11.4 12 10.3 SE 17 19 9 10 1018.0 1017.4 0.0
14/10:30pm 18.3 11.9 -11.6 12 10.3 SSE 17 20 9 11 1018.0 1017.4 0.0
14/10:00pm 16.9 10.9 -11.7 13 9.6 SE 15 19 8 10 1018.3 1017.8 0.0
14/09:30pm 17.8 11.4 -11.9 12 10.1 SE 17 17 9 9 1018.4 1017.9 0.0
14/09:00pm 18.4 11.9 -12.6 11 10.5 SSE 17 19 9 10 1018.4 1017.9 0.0
14/08:30pm 20.2 13.7 -13.6 9 11.5 SSE 17 20 9 11 1018.1 1017.6 0.0
14/08:00pm 21.3 14.8 -12.8 9 11.9 SE 17 19 9 10 1017.9 1017.3 0.0
14/07:30pm 22.0 15.2 -12.3 9 12.2 SSE 19 20 10 11 1017.6 1017.0 0.0
14/07:00pm 23.2 16.7 -12.8 8 12.8 SE 17 20 9 11 1017.5 1016.9 0.0
14/06:30pm 27.0 20.9 -13.6 6 14.9 SE 15 19 8 10 1017.2 1016.6 0.0
14/06:00pm 31.2 24.3 -12.9 5 17.1 SE 19 22 10 12 1017.0 1016.4 0.0
14/05:30pm 32.6 25.2 -11.9 5 17.8 SE 22 30 12 16 1016.9 1016.3 0.0
14/05:00pm 33.4 27.4 -11.3 5 18.2 E 15 20 8 11 1016.7 1016.1 0.0
14/04:30pm 33.5 26.6 -11.2 5 18.3 SE 20 30 11 16 1016.8 1016.2 0.0
14/04:00pm 33.6 26.8 -11.2 5 18.3 ESE 19 32 10 17 1017.0 1016.4 0.0
14/03:30pm 33.5 27.9 -11.2 5 18.3 SE 13 22 7 12 1017.3 1016.7 0.0
14/03:00pm 33.0 25.7 -11.6 5 18.0 SSE 22 32 12 17 1017.5 1016.9 0.0
14/02:30pm 33.3 26.5 -9.1 6 17.9 E 20 32 11 17 1017.8 1017.2 0.0
14/02:00pm 33.4 28.1 -7.0 7 17.6 ENE 13 22 7 12 1018.4 1017.9 0.0
14/01:30pm 32.0 26.4 -6.3 8 16.8 SSE 15 28 8 15 1018.9 1018.4 0.0
14/01:00pm 33.4 27.4 -7.0 7 17.6 E 17 32 9 17 1019.6 1019.1 0.0
14/12:30pm 32.2 26.1 -7.9 7 17.1 E 17 30 9 16 1020.3 1019.8 0.0
14/12:00pm 30.7 25.5 -5.8 9 15.9 ESE 13 26 7 14 1020.9 1020.4 0.0
14/11:30am 30.0 25.7 -4.9 10 15.4 ENE 9 20 5 11 1021.5 1021.0 0.0
14/11:00am 29.5 25.6 -1.8 13 14.5 NNE 9 15 5 8 1022.0 1021.5 0.0
14/10:30am 28.4 24.7 0.2 16 13.4 N 9 13 5 7 1022.3 1021.8 0.0
14/10:00am 27.7 23.9 -0.4 16 13.1 NNE 9 17 5 9 1022.7 1022.1 0.0
14/09:30am 25.3 21.2 -3.2 15 12.5 NE 9 13 5 7 1023.0 1022.4 0.0
14/09:00am 23.0 18.1 -3.3 17 11.2 ENE 13 15 7 8 1022.9 1022.3 0.0
14/08:30am 20.7 15.3 -4.4 18 10.3 ESE 15 17 8 9 1022.6 1022.0 0.0
14/08:00am 18.1 12.2 -5.9 19 9.2 ESE 17 22 9 12 1022.2 1021.7 0.0
14/07:30am 14.8 10.1 -5.5 24 7.6 ESE 11 13 6 7 1021.8 1021.3 0.0
14/07:00am 11.2 6.5 -5.3 31 6.0 ESE 11 13 6 7 1021.3 1020.8 0.0
14/06:30am 10.2 4.7 -5.7 32 5.6 ESE 15 15 8 8 1021.0 1020.5 0.0
14/06:00am 10.2 5.1 -5.3 33 5.5 ESE 13 15 7 8 1020.7 1020.2 0.0
14/05:30am 10.2 5.0 -5.7 32 5.6 ESE 13 15 7 8 1020.4 1019.9 0.0
14/05:00am 10.9 5.8 -5.5 31 5.9 ESE 13 15 7 8 1020.2 1019.7 0.0
14/04:30am 11.4 6.2 -6.0 29 6.2 ESE 13 17 7 9 1019.9 1019.4 0.0
14/04:00am 13.1 7.6 -5.4 27 6.8 SE 15 17 8 9 1019.4 1018.9 0.0
14/03:30am 13.7 8.3 -4.9 27 7.0 SE 15 17 8 9 1019.5 1019.0 0.0
14/03:00am 12.7 7.2 -5.3 28 6.6 SE 15 15 8 8 1019.7 1019.2 0.0
14/02:30am 13.8 8.7 -4.8 27 7.0 SE 13 15 7 8 1019.8 1019.3 0.0
14/02:00am 14.4 8.9 -5.3 25 7.4 SE 15 17 8 9 1019.9 1019.4 0.0
14/01:30am 15.5 10.0 -5.0 24 7.9 SE 15 19 8 10 1020.1 1019.6 0.0
14/01:00am 14.7 8.9 -5.1 25 7.5 SE 17 20 9 11 1020.3 1019.8 0.0
14/12:30am 14.4 8.9 -5.3 25 7.4 ESE 15 17 8 9 1020.3 1019.8 0.0
14/12:00am 15.3 9.8 -5.7 23 7.9 ESE 15 15 8 8 1020.4 1019.9 0.0
 
Date/Time
EST
Temp
°C
App
Temp
°C
Dew
Point
°C
Rel
Hum
%
Delta-T
°C
Wind Press
QNH
hPa
Press
MSL
hPa
Rain since
9am
mm
Dir  Spd
km/h
Gust
km/h
Spd
kts
Gust
kts
13/11:30pm 17.3 11.8 -5.2 21 8.8 SE 15 17 8 9 1020.3 1019.8 0.0
13/11:00pm 18.2 12.4 -5.1 20 9.1 SE 17 20 9 11 1020.4 1019.9 0.0
13/10:30pm 17.8 12.3 -5.4 20 9.0 SE 15 19 8 10 1020.4 1019.9 0.0
13/10:00pm 18.6 12.6 -6.2 18 9.5 SE 17 19 9 10 1020.4 1019.9 0.0
13/09:30pm 19.4 13.4 -6.2 17 10.0 SSE 17 20 9 11 1020.4 1019.9 0.0
13/09:00pm 19.0 13.0 -6.6 17 9.8 SSE 17 19 9 10 1020.3 1019.8 0.0
13/08:30pm 19.6 13.7 -6.1 17 10.1 SSE 17 17 9 9 1020.0 1019.5 0.0
13/08:00pm 20.6 14.6 -6.9 15 10.7 SE 17 19 9 10 1019.9 1019.4 0.0
13/07:30pm 21.3 15.3 -6.3 15 10.9 SE 17 17 9 9 1019.6 1019.1 0.0
13/07:00pm 23.3 17.7 -6.6 13 12.0 ESE 15 17 8 9 1019.3 1018.8 0.0
13/06:30pm 27.1 21.1 -7.1 10 14.1 ESE 17 20 9 11 1019.0 1018.5 0.0
13/06:00pm 29.8 22.5 -6.4 9 15.5 ESE 24 35 13 19 1018.7 1018.2 0.0
13/05:30pm 30.9 22.5 -5.6 9 16.0 ESE 30 39 16 21 1018.6 1018.1 0.0
13/05:00pm 31.5 23.2 -5.2 9 16.3 ESE 30 39 16 21 1018.5 1018.0 0.0
13/04:30pm 32.0 23.3 -4.8 9 16.5 ESE 32 39 17 21 1018.4 1017.9 0.0
13/04:00pm 32.0 23.1 -4.8 9 16.5 SE 33 46 18 25 1018.6 1018.1 0.0
13/03:30pm 32.2 23.9 -4.6 9 16.6 ESE 30 43 16 23 1018.7 1018.2 0.0
13/03:00pm 31.8 24.0 -3.5 10 16.1 ESE 28 41 15 22 1019.1 1018.6 0.0
13/02:30pm 31.7 23.9 -3.6 10 16.1 SE 28 43 15 23 1019.5 1019.0 0.0
13/02:00pm 31.3 24.8 -2.6 11 15.7 ESE 22 33 12 18 1019.9 1019.4 0.0
13/01:30pm 30.2 23.3 -2.3 12 15.0 ESE 24 35 13 19 1020.6 1020.1 0.0
13/01:00pm 30.6 23.8 -2.0 12 15.1 E 24 35 13 19 1021.2 1020.7 0.0
13/12:30pm 29.5 23.7 0.2 15 14.1 ESE 20 35 11 19 1021.6 1021.1 0.0
13/12:00pm 29.2 23.0 -0.1 15 13.9 E 22 35 12 19 1022.5 1021.9 0.0
13/11:30am 28.1 22.1 0.8 17 13.1 ESE 22 39 12 21 1023.2 1022.6 0.0
13/11:00am 28.0 20.9 1.5 18 12.8 ESE 28 39 15 21 1023.9 1023.3 0.0
13/10:30am 27.7 21.7 1.2 18 12.8 E 22 32 12 17 1024.2 1023.6 0.0
13/10:00am 26.9 20.8 2.7 21 11.9 E 24 33 13 18 1024.4 1023.8 0.0
13/09:30am 25.6 21.0 3.6 24 10.9 E 17 24 9 13 1024.2 1023.6 0.0
13/09:00am 22.8 18.6 1.8 25 9.8 ENE 13 19 7 10 1024.2 1023.6 0.0
13/08:30am 20.7 15.7 1.1 27 9.0 E 17 22 9 12 1024.0 1023.4 0.0
13/08:00am 17.1 11.8 -0.6 30 7.5 E 17 20 9 11 1023.8 1023.2 0.0
13/07:30am 14.2 9.6 -1.4 34 6.4 ESE 13 15 7 8 1023.3 1022.7 0.0
13/07:00am 11.3 6.5 -2.5 38 5.3 ESE 13 13 7 7 1022.7 1022.1 0.0
13/06:30am 10.7 5.5 -2.7 39 5.1 ESE 15 17 8 9 1022.1 1021.6 0.0
13/06:00am 10.5 4.9 -2.8 39 5.0 ESE 17 17 9 9 1021.7 1021.2 0.0
13/05:30am 10.5 5.6 -3.2 38 5.2 ESE 13 15 7 8 1021.5 1021.0 0.0
13/05:00am 11.0 5.8 -3.1 37 5.3 ESE 15 15 8 8 1021.1 1020.6 0.0
13/04:30am 11.2 5.9 -3.3 36 5.5 ESE 15 17 8 9 1020.8 1020.3 0.0
13/04:00am 11.6 6.3 -3.3 35 5.7 ESE 15 15 8 8 1020.7 1020.2 0.0
13/03:30am 11.7 6.4 -3.6 34 5.8 ESE 15 15 8 8 1020.6 1020.1 0.0
13/03:00am 12.6 7.3 -3.6 32 6.2 ESE 15 15 8 8 1020.7 1020.2 0.0
13/02:30am 14.2 8.6 -2.7 31 6.7 ESE 17 20 9 11 1020.7 1020.2 0.0
13/02:00am 14.5 8.5 -3.3 29 7.0 ESE 19 20 10 11 1020.9 1020.4 0.0
13/01:30am 14.9 8.9 -3.4 28 7.2 SE 19 22 10 12 1021.1 1020.6 0.0
13/01:00am 15.0 9.4 -3.3 28 7.2 ESE 17 20 9 11 1021.3 1020.8 0.0
13/12:30am 15.9 10.3 -3.0 27 7.6 ESE 17 22 9 12 1021.5 1021.0 0.0
13/12:00am 16.1 10.4 -3.4 26 7.8 SE 17 20 9 11 1021.6 1021.1 0.0
 
Date/Time
EST
Temp
°C
App
Temp
°C
Dew
Point
°C
Rel
Hum
%
Delta-T
°C
Wind Press
QNH
hPa
Press
MSL
hPa
Rain since
9am
mm
Dir  Spd
km/h
Gust
km/h
Spd
kts
Gust
kts
12/11:30pm 16.9 11.3 -3.2 25 8.1 ESE 17 20 9 11 1021.6 1021.1 0.0
12/11:00pm 17.8 11.8 -3.0 24 8.5 SE 19 20 10 11 1021.6 1021.1 0.0
12/10:30pm 17.4 11.4 -2.8 25 8.3 SE 19 20 10 11 1021.7 1021.2 0.0
12/10:00pm 17.2 11.5 -3.5 24 8.3 SE 17 20 9 11 1021.8 1021.3 0.0
12/09:30pm 17.9 12.3 -2.9 24 8.5 SE 17 19 9 10 1021.6 1021.1 0.0
12/09:00pm 18.1 12.9 -2.8 24 8.6 SE 15 17 8 9 1021.5 1021.0 0.0
12/08:30pm 19.1 13.9 -3.1 22 9.2 SE 15 20 8 11 1021.3 1020.8 0.0
12/08:00pm 20.3 14.9 -1.5 23 9.4 SE 17 20 9 11 1021.0 1020.5 0.0
12/07:30pm 21.0 15.5 -2.1 21 9.9 SE 17 17 9 9 1020.7 1020.2 0.0
12/07:00pm 22.9 17.9 -1.2 20 10.7 SE 15 17 8 9 1020.5 1020.0 0.0
12/06:30pm 25.6 20.7 -0.5 18 12.0 ESE 15 20 8 11 1020.3 1019.8 0.0
12/06:00pm 27.8 22.3 0.5 17 13.0 ESE 19 26 10 14 1019.9 1019.4 0.0

Other formats

Comma delimited format used in spreadsheet applications
http://www.bom.gov.au/fwo/IDQ60801/IDQ60801.94337.axf

JavaScript Object Notation format (JSON) in row-major order
http://www.bom.gov.au/fwo/IDQ60801/IDQ60801.94337.json

Data quality

Most of these data are generated automatically and are frequently updated. Quality checks on data are not normally performed. It is possible for incorrect values to appear. Refer to information at About Latest Weather Observations and please check the disclaimer before using these data.